Time;durP1;ratioP1;P1;durP2;ratioP2;P2;SDS_P1;SDS_P2;PMS_P1;PMS_P2;Temp;Humidity;BMP_temperature;BMP_pressure;BME280_temperature;BME280_humidity;BME280_pressure;Samples;Min_cycle;Max_cycle;Signal;HPM_P1;HPM_P2
2023/08/28 00:03:22;;;;;;;4.82;1.27;;;;;;;14.68;100.00;99425.19;12211195;19;20018;-85
2023/08/28 00:07:25;;;;;;;3.40;1.37;;;;;;;14.66;100.00;99408.00;12230727;19;20928;-86
2023/08/28 00:11:27;;;;;;;2.17;1.27;;;;;;;14.65;100.00;99411.91;12230144;19;20010;-86
2023/08/28 00:15:29;;;;;;;5.00;1.15;;;;;;;14.64;100.00;99403.91;12208322;19;20021;-86
2023/08/28 00:19:31;;;;;;;3.28;1.58;;;;;;;14.67;100.00;99403.31;12232613;19;20428;-86
2023/08/28 00:23:33;;;;;;;3.17;1.23;;;;;;;14.67;100.00;99395.00;12230369;19;20038;-85
2023/08/28 00:27:35;;;;;;;2.65;1.10;;;;;;;14.66;100.00;99387.78;12202193;19;20939;-84
2023/08/28 00:31:38;;;;;;;3.17;1.58;;;;;;;14.69;100.00;99387.19;12223808;19;20036;-85
2023/08/28 00:35:42;;;;;;;4.07;1.35;;;;;;;14.64;100.00;99378.94;12227955;19;20010;-85
2023/08/28 00:39:44;;;;;;;1.45;1.15;;;;;;;14.62;100.00;99381.97;12208141;19;20013;-86
2023/08/28 00:43:46;;;;;;;11.10;1.60;;;;;;;14.62;100.00;99370.06;12230515;19;20010;-85
2023/08/28 00:47:49;;;;;;;3.35;1.13;;;;;;;14.60;100.00;99367.56;12230835;19;20014;-85
2023/08/28 00:51:52;;;;;;;4.20;1.63;;;;;;;14.58;100.00;99367.88;12203571;19;20014;-84
2023/08/28 00:55:54;;;;;;;4.57;0.90;;;;;;;14.56;100.00;99353.44;12225936;19;20018;-84
2023/08/28 00:59:57;;;;;;;2.80;1.20;;;;;;;14.56;100.00;99352.63;12209519;19;20010;-85
2023/08/28 01:03:59;;;;;;;3.30;1.23;;;;;;;14.54;100.00;99352.91;12228757;19;20086;-86
2023/08/28 01:08:23;;;;;;;4.63;1.20;;;;;;;14.57;100.00;99352.34;12225011;19;20015;-86
2023/08/28 01:12:41;;;;;;;2.83;1.10;;;;;;;14.58;100.00;99356.78;12198656;19;20510;-85
2023/08/28 01:16:46;;;;;;;2.65;1.20;;;;;;;14.60;100.00;99367.56;12231949;19;20366;-85
2023/08/28 01:20:49;;;;;;;4.13;1.50;;;;;;;14.62;100.00;99368.13;12230752;19;20018;-85
2023/08/28 01:24:53;;;;;;;3.08;1.20;;;;;;;14.67;100.00;99365.31;12201978;19;20006;-85
2023/08/28 01:28:56;;;;;;;2.53;1.08;;;;;;;14.69;100.00;99370.56;12226964;19;20011;-85
2023/08/28 01:32:58;;;;;;;4.35;1.30;;;;;;;14.70;100.00;99377.78;12200882;19;20035;-83
2023/08/28 01:37:14;;;;;;;6.40;1.00;;;;;;;14.70;100.00;99397.19;12226797;19;20088;-84
2023/08/28 01:41:18;;;;;;;5.28;1.15;;;;;;;14.69;100.00;99410.22;12220963;19;20039;-85
2023/08/28 01:45:21;;;;;;;3.17;1.05;;;;;;;14.66;100.00;99410.78;12204387;19;20011;-84
2023/08/28 01:49:28;;;;;;;4.28;0.90;;;;;;;14.61;100.00;99410.84;12236155;19;20011;-84
2023/08/28 01:53:30;;;;;;;4.47;0.93;;;;;;;14.58;100.00;99415.00;12244000;19;20014;-84
2023/08/28 01:57:31;;;;;;;2.43;1.17;;;;;;;14.52;100.00;99410.59;12219939;19;20010;-85
2023/08/28 02:01:34;;;;;;;1.80;0.90;;;;;;;14.48;100.00;99401.16;12225478;19;20010;-85
2023/08/28 02:05:36;;;;;;;2.37;1.10;;;;;;;14.42;100.00;99413.38;12223430;19;20021;-86
2023/08/28 02:09:38;;;;;;;2.83;1.30;;;;;;;14.40;100.00;99415.63;12205376;19;20013;-85
2023/08/28 02:13:40;;;;;;;2.23;1.10;;;;;;;14.41;100.00;99425.59;12225331;19;20011;-85
2023/08/28 02:17:42;;;;;;;3.42;1.55;;;;;;;14.42;100.00;99418.09;12227786;19;20026;-86
2023/08/28 02:21:44;;;;;;;4.17;1.10;;;;;;;14.42;100.00;99413.38;12205698;19;20011;-86
2023/08/28 02:25:47;;;;;;;8.70;1.30;;;;;;;14.43;100.00;99419.78;12223993;19;20021;-86
2023/08/28 02:29:49;;;;;;;4.68;1.33;;;;;;;14.39;100.00;99415.91;12228543;19;20374;-85
2023/08/28 02:33:51;;;;;;;2.25;0.98;;;;;;;14.39;100.00;99418.66;12200056;19;20046;-86
2023/08/28 02:37:53;;;;;;;1.98;1.15;;;;;;;14.42;100.00;99415.34;12224880;19;20081;-85
2023/08/28 02:41:55;;;;;;;2.50;1.20;;;;;;;14.43;100.00;99417.84;12212227;19;20021;-86
2023/08/28 02:45:57;;;;;;;1.83;1.13;;;;;;;14.41;100.00;99400.66;12228891;19;20018;-85
2023/08/28 02:50:02;;;;;;;1.83;1.10;;;;;;;14.38;100.00;99395.66;12228203;19;20021;-82
2023/08/28 02:54:08;;;;;;;2.83;1.38;;;;;;;14.39;100.00;99393.72;12200994;19;20481;-84
2023/08/28 02:58:13;;;;;;;3.08;1.13;;;;;;;14.38;100.00;99381.81;12227890;19;20031;-83
2023/08/28 03:02:21;;;;;;;2.22;1.10;;;;;;;14.38;100.00;99358.81;12231619;19;20506;-83
2023/08/28 03:06:25;;;;;;;2.70;1.20;;;;;;;14.35;100.00;99343.59;12203771;19;20402;-83
2023/08/28 03:10:31;;;;;;;1.85;1.10;;;;;;;14.31;100.00;99342.50;12231116;19;20054;-83
2023/08/28 03:14:34;;;;;;;3.38;1.13;;;;;;;14.24;100.00;99330.91;12224834;19;20039;-83
2023/08/28 03:18:37;;;;;;;;;;;;;;;14.13;100.00;99344.00;12221340;19;20010;-83
2023/08/28 03:22:39;;;;;;;3.97;1.30;;;;;;;14.08;100.00;99341.25;12248310;19;19918;-84
2023/08/28 03:26:42;;;;;;;5.78;1.15;;;;;;;14.05;100.00;99339.84;12249325;19;20011;-83
2023/08/28 03:30:44;;;;;;;2.80;1.00;;;;;;;14.04;100.00;99349.28;12224872;19;20722;-84
2023/08/28 03:34:46;;;;;;;8.93;1.70;;;;;;;14.04;100.00;99348.44;12229869;19;20010;-83
2023/08/28 03:38:48;;;;;;;1.20;1.00;;;;;;;14.03;100.00;99344.03;12233354;19;20010;-85
2023/08/28 03:42:50;;;;;;;2.08;1.10;;;;;;;14.02;100.00;99351.50;12211949;19;20038;-84
2023/08/28 03:46:52;;;;;;;5.38;1.30;;;;;;;14.02;100.00;99357.06;12228763;19;20055;-83
2023/08/28 03:50:54;;;;;;;2.07;1.20;;;;;;;13.97;100.00;99345.97;12222647;19;20017;-84
2023/08/28 03:54:56;;;;;;;2.28;1.00;;;;;;;13.95;100.00;99336.28;12233798;19;21111;-82
2023/08/28 03:58:58;;;;;;;3.10;1.40;;;;;;;13.91;100.00;99330.50;12240234;19;20013;-83
2023/08/28 04:03:02;;;;;;;3.75;1.40;;;;;;;13.89;100.00;99325.25;12217426;19;20011;-83
2023/08/28 04:07:05;;;;;;;6.60;1.73;;;;;;;13.87;100.00;99321.13;12238635;19;20396;-84
2023/08/28 04:11:07;;;;;;;2.95;1.45;;;;;;;13.83;100.00;99318.09;12239917;19;20018;-84
2023/08/28 04:15:11;;;;;;;3.35;1.80;;;;;;;13.77;100.00;99310.06;12221576;19;20025;-83
2023/08/28 04:19:15;;;;;;;2.50;1.27;;;;;;;13.77;100.00;99318.38;12241238;19;20082;-84
2023/08/28 04:23:17;;;;;;;3.67;1.58;;;;;;;13.77;100.00;99315.59;12241495;19;19998;-85
2023/08/28 04:27:20;;;;;;;3.50;1.58;;;;;;;13.79;100.00;99316.97;12215950;19;20054;-84
2023/08/28 04:31:22;;;;;;;5.28;1.50;;;;;;;13.83;100.00;99322.78;12243906;19;20016;-85
2023/08/28 04:35:24;;;;;;;5.70;1.52;;;;;;;13.83;100.00;99323.63;12237394;19;20058;-85
2023/08/28 04:39:28;;;;;;;4.18;1.70;;;;;;;13.87;100.00;99334.97;12218006;19;20053;-84
2023/08/28 04:43:31;;;;;;;5.55;1.65;;;;;;;13.84;100.00;99341.06;12240492;19;20015;-84
2023/08/28 04:47:33;;;;;;;4.40;1.88;;;;;;;13.84;100.00;99339.13;12239148;19;20014;-84
2023/08/28 04:51:35;;;;;;;3.35;2.13;;;;;;;13.89;100.00;99341.03;12216516;19;20111;-86
2023/08/28 04:55:43;;;;;;;3.85;1.92;;;;;;;13.94;100.00;99343.78;12233162;19;20006;-85
2023/08/28 04:59:45;;;;;;;6.72;1.98;;;;;;;13.99;100.00;99343.75;12240819;19;20565;-84
2023/08/28 05:03:48;;;;;;;5.53;1.92;;;;;;;14.02;100.00;99337.66;12218664;19;20007;-84
2023/08/28 05:07:51;;;;;;;6.65;2.40;;;;;;;14.03;100.00;99338.47;12238402;19;20020;-83
2023/08/28 05:11:53;;;;;;;6.93;1.83;;;;;;;14.06;100.00;99347.03;12243828;19;20014;-85
2023/08/28 05:15:56;;;;;;;4.18;2.20;;;;;;;14.13;100.00;99335.69;12219092;19;20668;-84
2023/08/28 05:19:58;;;;;;;3.70;1.83;;;;;;;14.17;100.00;99333.97;12244850;19;20014;-84
2023/08/28 05:24:01;;;;;;;;;;;;;;;14.23;100.00;99329.25;12230599;19;20505;-83
2023/08/28 05:28:04;;;;;;;2.85;1.63;;;;;;;14.30;100.00;99335.28;12235224;19;19919;-84
2023/08/28 05:32:06;;;;;;;6.60;1.98;;;;;;;14.35;100.00;99327.78;12234089;19;20077;-85
2023/08/28 05:36:07;;;;;;;6.95;1.92;;;;;;;14.43;100.00;99331.06;12210623;19;20013;-84
2023/08/28 05:40:14;;;;;;;5.05;1.45;;;;;;;14.52;100.00;99327.44;12235993;19;20007;-84
2023/08/28 05:44:16;;;;;;;7.38;2.10;;;;;;;14.66;100.00;99335.09;12236873;19;20014;-84
2023/08/28 05:48:18;;;;;;;4.97;1.90;;;;;;;14.79;100.00;99321.41;12211782;19;20010;-83
2023/08/28 05:52:20;;;;;;;3.83;1.77;;;;;;;14.89;100.00;99326.03;12234716;19;20010;-85
2023/08/28 05:56:22;;;;;;;6.20;1.70;;;;;;;14.99;100.00;99336.22;12229870;19;20021;-84
2023/08/28 06:00:26;;;;;;;;;;;;;;;15.10;100.00;99337.78;12213315;19;20014;-84
2023/08/28 06:04:29;;;;;;;7.00;1.70;;;;;;;15.23;100.00;99344.63;12233285;19;19918;-84
2023/08/28 06:08:31;;;;;;;;;;;;;;;15.28;100.00;99345.38;12235505;19;20011;-85
2023/08/28 06:12:34;;;;;;;3.83;1.70;;;;;;;15.37;100.00;99359.44;12209808;19;19915;-83
2023/08/28 06:16:37;;;;;;;4.18;1.60;;;;;;;15.51;100.00;99365.16;12233617;19;20010;-84
2023/08/28 06:20:39;;;;;;;3.93;1.83;;;;;;;15.59;100.00;99360.91;12235786;19;20018;-84
2023/08/28 06:24:42;;;;;;;4.38;1.90;;;;;;;15.62;100.00;99354.78;12212709;19;20010;-84
2023/08/28 06:28:44;;;;;;;5.75;1.83;;;;;;;15.61;100.00;99351.16;12233608;19;20021;-85
2023/08/28 06:32:45;;;;;;;4.93;2.00;;;;;;;15.78;100.00;99353.50;12231879;19;20013;-84
2023/08/28 06:36:49;;;;;;;4.22;1.70;;;;;;;15.87;100.00;99340.59;12210439;19;20010;-84
2023/08/28 06:40:52;;;;;;;3.85;1.90;;;;;;;15.91;100.00;99350.03;12228966;19;20491;-84
2023/08/28 06:44:54;;;;;;;3.38;1.60;;;;;;;15.98;100.00;99351.63;12228135;19;20014;-84
2023/08/28 06:48:59;;;;;;;3.67;2.15;;;;;;;16.11;100.00;99362.00;12232146;19;20010;-85
2023/08/28 06:53:00;;;;;;;5.38;1.75;;;;;;;16.21;100.00;99356.31;12227244;19;20026;-84
2023/08/28 06:57:03;;;;;;;;;;;;;;;16.30;100.00;99353.69;12207749;19;20050;-85
2023/08/28 07:01:05;;;;;;;5.60;1.98;;;;;;;16.40;100.00;99334.91;12234011;19;19923;-83
2023/08/28 07:05:07;;;;;;;5.00;1.83;;;;;;;16.45;100.00;99347.06;12227919;19;20025;-84
2023/08/28 07:09:09;;;;;;;4.32;2.10;;;;;;;16.48;100.00;99335.34;12207959;19;20024;-84
2023/08/28 07:13:11;;;;;;;5.85;2.17;;;;;;;16.53;100.00;99326.94;12225500;19;20002;-84
2023/08/28 07:17:12;;;;;;;5.85;2.25;;;;;;;16.62;100.00;99325.94;12228393;19;20026;-84
2023/08/28 07:21:15;;;;;;;6.72;2.15;;;;;;;16.71;100.00;99314.16;12206793;19;20024;-85
2023/08/28 07:25:21;;;;;;;4.10;1.67;;;;;;;16.80;100.00;99306.78;12227476;19;20049;-84
2023/08/28 07:29:24;;;;;;;7.35;3.03;;;;;;;16.90;100.00;99294.69;12222131;19;20007;-84
2023/08/28 07:33:27;;;;;;;8.63;1.80;;;;;;;17.01;100.00;99310.06;12192197;19;20022;-84
2023/08/28 07:37:29;;;;;;;3.65;1.60;;;;;;;17.11;100.00;99307.13;12220845;19;20400;-86
2023/08/28 07:41:31;;;;;;;;;;;;;;;17.21;100.00;99309.69;12218956;19;20562;-84
2023/08/28 07:45:33;;;;;;;3.63;1.90;;;;;;;17.45;100.00;99309.53;12197172;19;19907;-83
2023/08/28 07:49:35;;;;;;;3.75;1.70;;;;;;;17.64;100.00;99303.03;12215691;19;20015;-84
2023/08/28 07:53:37;;;;;;;4.60;1.50;;;;;;;17.90;100.00;99307.00;12216068;19;20010;-84
2023/08/28 07:57:39;;;;;;;5.07;1.67;;;;;;;18.09;100.00;99308.84;12186263;19;20010;-84
2023/08/28 08:01:41;;;;;;;4.55;1.60;;;;;;;18.28;100.00;99312.31;12214221;19;20451;-84
2023/08/28 08:05:43;;;;;;;2.85;1.80;;;;;;;18.45;100.00;99314.47;12219340;19;20043;-84
2023/08/28 08:09:44;;;;;;;6.28;1.98;;;;;;;18.58;100.00;99315.53;12197038;19;20814;-84
2023/08/28 08:13:46;;;;;;;2.58;1.30;;;;;;;18.77;100.00;99312.59;12222062;19;20032;-83
2023/08/28 08:17:48;;;;;;;4.35;1.55;;;;;;;18.95;100.00;99325.56;12214562;19;20710;-85
2023/08/28 08:21:50;;;;;;;4.63;1.57;;;;;;;19.11;100.00;99317.63;12194716;19;20098;-85
2023/08/28 08:25:54;;;;;;;4.72;1.58;;;;;;;19.15;100.00;99320.59;12211640;19;20641;-84
2023/08/28 08:29:56;;;;;;;4.20;1.65;;;;;;;19.21;100.00;99311.75;12194200;19;20015;-84
2023/08/28 08:33:58;;;;;;;2.50;1.42;;;;;;;19.27;98.75;99313.28;12214622;19;20019;-84
2023/08/28 08:38:00;;;;;;;5.78;2.00;;;;;;;19.41;97.20;99313.19;12216183;19;20021;-85
2023/08/28 08:42:02;;;;;;;4.00;1.77;;;;;;;19.39;94.53;99312.69;12195424;19;20010;-85
2023/08/28 08:46:06;;;;;;;3.10;1.73;;;;;;;19.26;94.22;99328.41;12218861;19;20007;-83
2023/08/28 08:50:09;;;;;;;2.67;1.63;;;;;;;19.24;94.53;99336.25;12219438;19;20010;-83
2023/08/28 08:54:26;;;;;;;6.43;2.33;;;;;;;19.22;95.71;99343.34;12195956;19;20007;-84
2023/08/28 08:58:30;;;;;;;3.40;1.50;;;;;;;19.26;97.17;99347.94;12220188;19;20398;-84
2023/08/28 09:02:32;;;;;;;4.63;1.60;;;;;;;19.22;95.21;99348.94;12217769;19;20024;-84
2023/08/28 09:06:36;;;;;;;5.93;1.88;;;;;;;19.11;94.37;99349.16;12192459;19;20014;-84
2023/08/28 09:10:38;;;;;;;3.42;1.60;;;;;;;19.22;94.67;99357.31;12218246;19;20011;-85
2023/08/28 09:14:40;;;;;;;2.15;1.38;;;;;;;19.25;92.71;99356.66;12215586;19;20460;-85
2023/08/28 09:18:42;;;;;;;3.60;1.73;;;;;;;19.27;94.12;99366.34;12197637;19;20039;-84
2023/08/28 09:22:48;;;;;;;5.03;1.90;;;;;;;19.35;93.08;99379.56;12215787;19;20011;-84
2023/08/28 09:26:54;;;;;;;3.20;1.45;;;;;;;19.31;91.28;99370.19;12205314;19;20011;-85
2023/08/28 09:30:56;;;;;;;4.72;1.55;;;;;;;19.35;90.49;99390.72;12212330;19;20022;-85
2023/08/28 09:34:58;;;;;;;3.43;1.40;;;;;;;19.47;91.56;99380.94;12212044;19;20027;-85
2023/08/28 09:39:01;;;;;;;4.47;1.50;;;;;;;19.54;90.33;99387.75;12190694;19;20102;-85
2023/08/28 09:43:13;;;;;;;3.25;1.45;;;;;;;19.56;90.59;99376.22;12212469;19;20017;-84
2023/08/28 09:47:22;;;;;;;3.72;2.15;;;;;;;19.54;91.08;99365.38;12212307;19;20383;-85
2023/08/28 09:51:39;;;;;;;4.63;2.05;;;;;;;19.41;91.27;99371.88;12188222;19;20031;-84
2023/08/28 09:55:51;;;;;;;4.30;1.60;;;;;;;19.35;91.54;99387.13;12209685;19;20023;-84
2023/08/28 09:59:53;;;;;;;3.15;1.60;;;;;;;19.34;92.11;99389.09;12208609;19;20013;-85
2023/08/28 10:03:56;;;;;;;3.35;2.08;;;;;;;19.39;90.54;99390.91;12185282;19;20054;-84
2023/08/28 10:08:02;;;;;;;5.25;2.88;;;;;;;19.64;89.28;99391.41;12219432;19;20022;-85
2023/08/28 10:12:06;;;;;;;3.90;1.67;;;;;;;20.11;87.92;99377.81;12197244;19;20039;-85
2023/08/28 10:16:13;;;;;;;4.65;2.28;;;;;;;20.47;83.03;99381.22;12215708;19;20470;-82
2023/08/28 10:20:17;;;;;;;4.00;2.58;;;;;;;20.89;80.91;99369.63;12217280;19;20081;-84
2023/08/28 10:24:20;;;;;;;3.78;1.63;;;;;;;21.21;81.00;99370.22;12190398;19;20524;-84
2023/08/28 10:28:25;;;;;;;5.15;2.47;;;;;;;21.35;78.39;99346.47;12210926;19;20018;-85
2023/08/28 10:32:31;;;;;;;5.45;3.30;;;;;;;21.16;74.21;99326.41;12209460;19;20003;-85
2023/08/28 10:36:35;;;;;;;5.68;2.25;;;;;;;21.28;75.53;99340.56;12188704;19;20007;-85
2023/08/28 10:40:58;;;;;;;8.50;2.45;;;;;;;21.80;73.20;99351.66;12208101;19;20010;-86
2023/08/28 10:45:00;;;;;;;5.30;1.77;;;;;;;22.07;67.71;99335.50;12185860;19;20014;-85
2023/08/28 10:49:05;;;;;;;3.80;1.70;;;;;;;22.18;68.08;99313.53;12209803;19;20017;-85
2023/08/28 10:53:11;;;;;;;4.35;1.75;;;;;;;22.14;67.60;99310.56;12207638;19;20011;-86
2023/08/28 10:57:25;;;;;;;3.50;1.50;;;;;;;21.94;63.33;99295.31;12183841;19;20081;-85
2023/08/28 11:01:46;;;;;;;2.20;1.38;;;;;;;21.60;67.19;99308.34;12206809;19;20015;-84
2023/08/28 11:05:48;;;;;;;8.57;1.33;;;;;;;21.65;68.27;99298.09;12208381;19;20066;-86
2023/08/28 11:09:50;;;;;;;2.47;1.23;;;;;;;21.57;63.49;99294.19;12185266;19;20003;-86
2023/08/28 11:14:01;;;;;;;2.40;1.57;;;;;;;21.43;64.84;99294.41;12222012;19;20007;-81
2023/08/28 11:18:37;;;;;;;1.55;1.00;;;;;;;21.22;65.57;99297.06;12236517;19;20003;-82
2023/08/28 11:22:40;;;;;;;3.17;1.40;;;;;;;21.08;65.00;99299.22;12262433;19;20007;-81
2023/08/28 11:26:45;;;;;;;3.60;1.38;;;;;;;21.04;67.40;99278.66;12254369;19;20043;-84
2023/08/28 11:30:46;;;;;;;1.60;1.35;;;;;;;21.22;68.02;99283.06;12190131;19;20023;-84
2023/08/28 11:34:50;;;;;;;4.10;1.60;;;;;;;21.32;68.39;99277.06;12218233;19;20022;-84
2023/08/28 11:38:53;;;;;;;2.17;1.17;;;;;;;21.38;66.56;99275.78;12215422;19;20750;-85
2023/08/28 11:43:08;;;;;;;3.08;1.45;;;;;;;21.73;67.47;99275.63;12193474;19;20015;-85
2023/08/28 11:47:10;;;;;;;3.25;1.55;;;;;;;22.00;65.73;99267.91;12214122;19;20106;-85
2023/08/28 11:51:12;;;;;;;1.97;1.10;;;;;;;22.12;62.61;99270.78;12193477;19;20035;-85
2023/08/28 11:55:14;;;;;;;4.00;1.20;;;;;;;22.19;62.77;99254.28;12213422;19;20070;-85
2023/08/28 11:59:16;;;;;;;3.88;1.15;;;;;;;22.55;63.31;99244.44;12212617;19;20011;-84
2023/08/28 12:03:19;;;;;;;3.80;1.17;;;;;;;22.96;61.42;99245.53;12191438;19;20485;-85
2023/08/28 12:07:25;;;;;;;3.05;1.33;;;;;;;23.22;59.03;99236.03;12211500;19;20010;-86
2023/08/28 12:11:27;;;;;;;3.95;1.42;;;;;;;23.47;57.03;99232.09;12213897;19;20771;-86
2023/08/28 12:15:33;;;;;;;3.57;1.63;;;;;;;23.66;57.20;99235.13;12190379;19;20010;-85
2023/08/28 12:19:35;;;;;;;2.72;1.40;;;;;;;23.92;54.33;99233.16;12211286;19;20454;-84
2023/08/28 12:23:56;;;;;;;4.07;1.38;;;;;;;24.15;51.41;99227.84;12213343;19;20027;-86
2023/08/28 12:28:06;;;;;;;1.33;1.00;;;;;;;24.32;52.16;99224.75;12188447;19;20014;-85
2023/08/28 12:32:19;;;;;;;2.80;1.08;;;;;;;24.28;51.94;99237.91;12212319;19;20006;-84
2023/08/28 12:36:33;;;;;;;2.13;1.48;;;;;;;24.51;50.91;99222.16;12188748;19;20485;-86
2023/08/28 12:40:36;;;;;;;2.72;1.63;;;;;;;24.60;48.44;99207.94;12210584;19;20022;-85
2023/08/28 12:44:40;;;;;;;3.83;1.50;;;;;;;24.59;49.21;99200.63;12212841;19;20022;-84
2023/08/28 12:48:43;;;;;;;2.05;1.08;;;;;;;24.83;48.88;99204.53;12187953;19;20117;-84
2023/08/28 12:52:48;;;;;;;2.80;1.25;;;;;;;24.81;45.64;99206.88;12207637;19;19999;-85
2023/08/28 12:56:52;;;;;;;2.35;0.98;;;;;;;24.34;48.27;99216.78;12209436;19;20017;-86
2023/08/28 13:00:54;;;;;;;2.15;0.90;;;;;;;24.04;47.08;99214.25;12189016;19;20466;-84
2023/08/28 13:04:56;;;;;;;3.83;1.00;;;;;;;23.70;49.56;99221.19;12209765;19;20010;-84
2023/08/28 13:08:57;;;;;;;5.90;1.13;;;;;;;23.38;49.78;99242.59;12204952;19;20002;-84
2023/08/28 13:12:59;;;;;;;3.13;1.20;;;;;;;23.00;50.07;99249.31;12218849;19;20460;-82
2023/08/28 13:17:01;;;;;;;1.90;1.00;;;;;;;22.75;50.80;99243.59;12216682;19;20466;-85
2023/08/28 13:21:05;;;;;;;2.30;1.17;;;;;;;22.64;51.49;99239.56;12196209;19;20015;-84
2023/08/28 13:25:07;;;;;;;2.42;1.42;;;;;;;22.65;52.44;99254.41;12216597;19;20017;-84
2023/08/28 13:29:09;;;;;;;2.92;1.30;;;;;;;22.58;52.65;99256.97;12213843;19;20010;-86
2023/08/28 13:33:10;;;;;;;2.23;1.40;;;;;;;22.52;54.18;99259.97;12197147;19;20019;-84
2023/08/28 13:37:12;;;;;;;2.43;1.33;;;;;;;22.63;55.21;99260.34;12210257;19;20094;-84
2023/08/28 13:41:14;;;;;;;2.00;1.13;;;;;;;22.75;54.66;99254.81;12210866;19;20013;-85
2023/08/28 13:45:16;;;;;;;3.17;1.10;;;;;;;22.80;54.77;99250.16;12188450;19;20026;-85
2023/08/28 13:49:18;;;;;;;3.10;1.00;;;;;;;22.87;55.52;99256.84;12214651;19;20014;-86
2023/08/28 13:53:20;;;;;;;1.63;1.13;;;;;;;23.00;55.72;99269.00;12221783;19;20017;-83
2023/08/28 13:57:24;;;;;;;4.38;1.50;;;;;;;23.23;53.97;99262.94;12191753;19;20027;-82
2023/08/28 14:01:29;;;;;;;3.87;1.03;;;;;;;23.22;53.28;99281.00;12216574;19;20010;-86
2023/08/28 14:05:31;;;;;;;2.88;1.20;;;;;;;23.25;54.63;99283.91;12213928;19;20014;-83
2023/08/28 14:09:33;;;;;;;1.90;1.10;;;;;;;23.05;54.35;99271.56;12192503;19;20478;-83
2023/08/28 14:13:36;;;;;;;1.47;1.10;;;;;;;22.96;55.59;99270.81;12214985;19;20014;-86
2023/08/28 14:17:38;;;;;;;2.35;0.90;;;;;;;22.63;55.20;99268.78;12211408;19;20027;-85
2023/08/28 14:21:40;;;;;;;2.10;1.20;;;;;;;22.44;56.85;99268.47;12191804;19;20018;-85
2023/08/28 14:25:42;;;;;;;1.17;0.97;;;;;;;22.46;52.46;99271.75;12212728;19;20017;-85
2023/08/28 14:29:44;;;;;;;1.77;1.00;;;;;;;22.23;54.84;99255.25;12215525;19;20019;-86
2023/08/28 14:33:46;;;;;;;1.05;0.93;;;;;;;22.29;55.79;99253.88;12189714;19;20010;-86
2023/08/28 14:37:47;;;;;;;4.17;1.43;;;;;;;22.25;56.51;99250.13;12210582;19;20391;-85
2023/08/28 14:41:49;;;;;;;5.30;1.40;;;;;;;22.18;57.05;99249.81;12211284;19;20003;-84
2023/08/28 14:45:52;;;;;;;1.50;1.20;;;;;;;22.11;56.97;99240.28;12190224;19;20479;-85
2023/08/28 14:49:54;;;;;;;3.22;1.40;;;;;;;22.00;58.72;99248.28;12211683;19;20047;-86
2023/08/28 14:53:57;;;;;;;3.70;2.07;;;;;;;21.85;59.01;99250.50;12193735;19;20003;-84
2023/08/28 14:58:02;;;;;;;2.90;1.42;;;;;;;21.70;60.88;99248.28;12210184;19;20242;-85
2023/08/28 15:02:05;;;;;;;2.53;1.40;;;;;;;21.51;61.59;99251.50;12211558;19;20014;-85
2023/08/28 15:06:07;;;;;;;1.60;1.13;;;;;;;21.33;62.47;99241.50;12187460;19;20034;-84
2023/08/28 15:10:09;;;;;;;1.73;1.40;;;;;;;21.08;62.90;99237.59;12227962;19;20023;-83
2023/08/28 15:14:11;;;;;;;1.60;1.20;;;;;;;21.00;63.87;99230.03;12217512;19;20014;-86
2023/08/28 15:18:13;;;;;;;1.60;1.10;;;;;;;20.85;62.08;99223.84;12184994;19;20050;-84
2023/08/28 15:22:15;;;;;;;1.77;1.30;;;;;;;20.77;63.70;99232.25;12211222;19;20031;-84
2023/08/28 15:26:16;;;;;;;2.35;1.20;;;;;;;20.84;64.41;99227.78;12212184;19;20031;-84
2023/08/28 15:30:21;;;;;;;2.77;1.33;;;;;;;20.88;64.94;99225.13;12205982;19;20000;-83
2023/08/28 15:34:24;;;;;;;3.17;1.50;;;;;;;20.91;63.95;99230.06;12252541;19;20018;-84
2023/08/28 15:38:25;;;;;;;2.27;1.23;;;;;;;20.86;63.97;99244.25;12209780;19;20020;-86
2023/08/28 15:42:27;;;;;;;2.80;1.33;;;;;;;20.74;63.97;99232.91;12187391;19;20015;-83
2023/08/28 15:46:29;;;;;;;2.80;1.37;;;;;;;20.60;63.59;99233.91;12206144;19;20018;-87
2023/08/28 15:50:36;;;;;;;4.32;1.63;;;;;;;20.56;65.68;99241.31;12207893;19;20036;-86
2023/08/28 15:54:47;;;;;;;2.63;1.23;;;;;;;20.44;66.93;99244.75;12158710;19;20022;-83
2023/08/28 15:58:51;;;;;;;2.10;1.50;;;;;;;20.30;67.60;99244.09;12197940;19;20014;-82
2023/08/28 16:03:09;;;;;;;1.85;1.35;;;;;;;20.16;68.33;99241.44;12181054;19;20010;-84
2023/08/28 16:07:11;;;;;;;2.97;1.53;;;;;;;20.02;69.10;99250.00;12203270;19;20047;-85
2023/08/28 16:11:13;;;;;;;3.40;1.40;;;;;;;19.90;71.25;99244.22;12203212;19;20015;-84
2023/08/28 16:15:15;;;;;;;4.00;1.38;;;;;;;19.79;72.16;99240.06;12184292;19;20024;-84
2023/08/28 16:19:18;;;;;;;2.10;1.30;;;;;;;19.72;73.14;99232.16;12207773;19;20017;-85
2023/08/28 16:23:20;;;;;;;2.95;1.40;;;;;;;19.70;74.76;99240.03;12210939;19;20032;-85
2023/08/28 16:27:22;;;;;;;1.70;1.30;;;;;;;19.66;73.75;99230.66;12210242;19;20010;-85
2023/08/28 16:36:00;;;;;;;2.33;1.20;;;;;;;19.65;75.20;99230.97;12189451;19;20014;-85
2023/08/28 16:40:02;;;;;;;2.92;1.15;;;;;;;19.61;75.77;99227.16;12210905;19;20014;-84
2023/08/28 16:44:05;;;;;;;1.90;1.40;;;;;;;19.53;76.82;99224.00;12210722;19;20007;-84
2023/08/28 16:48:07;;;;;;;2.30;1.70;;;;;;;19.47;76.32;99225.28;12188433;19;20255;-84
2023/08/28 16:52:08;;;;;;;2.80;1.50;;;;;;;19.37;76.45;99211.63;12211894;19;20267;-82
2023/08/28 16:56:10;;;;;;;2.90;1.67;;;;;;;19.34;78.45;99215.06;12211416;19;20002;-86
2023/08/28 17:00:12;;;;;;;3.10;1.50;;;;;;;19.25;80.84;99217.00;12187414;19;20010;-85
2023/08/28 17:04:15;;;;;;;;;;;;;;;19.10;82.49;99215.47;12208013;19;20034;-86
2023/08/28 17:08:17;;;;;;;3.28;1.80;;;;;;;19.06;83.55;99220.84;12207878;19;20385;-86
2023/08/28 17:12:18;;;;;;;3.50;1.48;;;;;;;18.94;86.24;99234.56;12186944;19;20018;-85
2023/08/28 17:16:20;;;;;;;3.35;1.42;;;;;;;18.83;88.20;99238.78;12208716;19;20376;-86
2023/08/28 17:20:22;;;;;;;3.63;1.58;;;;;;;18.79;89.34;99238.59;12221404;19;20018;-85
2023/08/28 17:24:24;;;;;;;3.38;1.35;;;;;;;18.68;90.79;99226.03;12186047;19;20010;-86
2023/08/28 17:28:26;;;;;;;6.18;1.70;;;;;;;18.65;92.00;99232.25;12211202;19;20009;-86
2023/08/28 17:32:28;;;;;;;2.22;1.70;;;;;;;18.62;92.38;99235.63;12229840;19;20033;-86
2023/08/28 17:36:31;;;;;;;3.95;1.88;;;;;;;18.55;93.07;99221.31;12194759;19;20336;-87
2023/08/28 17:40:33;;;;;;;;;;;;;;;18.45;92.41;99217.63;12215785;19;20006;-84
2023/08/28 17:44:34;;;;;;;2.80;1.80;;;;;;;18.41;92.94;99233.38;12219172;19;19911;-87
2023/08/28 17:48:36;;;;;;;4.82;1.83;;;;;;;18.34;93.96;99237.72;12196257;19;20023;-86
2023/08/28 17:52:38;;;;;;;2.58;1.80;;;;;;;18.27;93.87;99243.75;12218371;19;20427;-86
2023/08/28 17:56:47;;;;;;;3.50;1.58;;;;;;;18.18;94.48;99242.84;12226415;19;20007;-84
2023/08/28 18:00:52;;;;;;;3.80;1.77;;;;;;;18.12;95.03;99241.31;12189054;19;20002;-84
2023/08/28 18:04:54;;;;;;;2.47;1.75;;;;;;;18.04;95.60;99251.25;12212204;19;20007;-87
2023/08/28 18:08:56;;;;;;;2.83;1.63;;;;;;;17.97;96.57;99253.63;12199252;19;20053;-89
2023/08/28 18:12:58;;;;;;;1.33;1.20;;;;;;;17.89;95.75;99254.38;12206792;19;20006;-86
2023/08/28 18:17:00;;;;;;;4.50;1.90;;;;;;;17.82;96.30;99254.78;12200239;19;20017;-86
2023/08/28 18:21:02;;;;;;;3.77;1.80;;;;;;;17.76;97.18;99261.59;12195357;19;20540;-85
2023/08/28 18:25:04;;;;;;;2.07;1.50;;;;;;;17.69;98.46;99267.53;12217162;19;20014;-85
2023/08/28 18:29:06;;;;;;;2.92;1.67;;;;;;;17.65;98.31;99260.13;12215037;19;20002;-86
2023/08/28 18:33:08;;;;;;;8.52;2.00;;;;;;;17.60;99.33;99274.16;12197126;19;20014;-86
2023/08/28 18:37:13;;;;;;;3.22;1.50;;;;;;;17.57;99.73;99286.75;12215598;19;20378;-85
2023/08/28 18:41:15;;;;;;;4.15;1.50;;;;;;;17.51;100.00;99286.00;12215884;19;20010;-85
2023/08/28 18:45:17;;;;;;;3.38;1.63;;;;;;;17.48;99.84;99289.41;12194316;19;20026;-88
2023/08/28 18:49:19;;;;;;;2.53;1.60;;;;;;;17.39;99.83;99282.09;12217525;19;20006;-87
2023/08/28 18:53:21;;;;;;;1.98;1.58;;;;;;;17.38;100.00;99286.03;12217717;19;20013;-87
2023/08/28 18:57:23;;;;;;;2.85;1.75;;;;;;;17.34;100.00;99298.91;12194296;19;20015;-86